Sherwood Forest, Massachusetts
Current Conditions -  °F | °C
As of 6:54 PM on Friday 21 Nov 2014 (Local Time) from KPSF Reporting Station
Clear Clear  
Wind Chill: 10°   Ceiling: Unl
Heat Index: 20°   Visibility: 10mi
Dew Point:   Wind: 8mph
Humidity: 62%   Direction: 270°W
Pressure: 30.35"   Gusts: NA
Location:  42.3623°N, 73.1505°W
Report Text: KPSF 212354Z AUTO 27007KT 10SM CLR M07/M13 A3035 RMK AO2 SLP298 T10671128 11022 21067 51029
Loading
Personal Weather Stations






























Interactive Weather Map New forecast layout! Learn more

10-Day Weather Forecast

Advertisements
Track Severe Weather on mobile